sensor_id;sensor_type;location;lat;lon;timestamp;P1;durP1;ratioP1;P2;durP2;ratioP2
55037;SDS011;40937;53.594;10.034;2022-09-09T00:01:01;35.13;;;32.03;;
55037;SDS011;40937;53.594;10.034;2022-09-09T00:03:37;37.28;;;33.97;;
55037;SDS011;40937;53.594;10.034;2022-09-09T00:06:12;38.17;;;34.60;;
55037;SDS011;40937;53.594;10.034;2022-09-09T00:08:58;38.85;;;35.30;;
55037;SDS011;40937;53.594;10.034;2022-09-09T00:11:29;38.03;;;34.47;;
55037;SDS011;40937;53.594;10.034;2022-09-09T00:14:10;37.80;;;34.63;;
55037;SDS011;40937;53.594;10.034;2022-09-09T00:16:42;42.00;;;37.97;;
55037;SDS011;40937;53.594;10.034;2022-09-09T00:19:15;44.72;;;40.45;;
55037;SDS011;40937;53.594;10.034;2022-09-09T00:21:50;46.13;;;41.63;;
55037;SDS011;40937;53.594;10.034;2022-09-09T00:24:26;45.80;;;41.00;;
55037;SDS011;40937;53.594;10.034;2022-09-09T00:26:57;49.40;;;44.47;;
55037;SDS011;40937;53.594;10.034;2022-09-09T00:29:33;50.40;;;45.30;;
55037;SDS011;40937;53.594;10.034;2022-09-09T00:32:09;51.92;;;46.53;;
55037;SDS011;40937;53.594;10.034;2022-09-09T00:34:39;52.22;;;46.45;;
55037;SDS011;40937;53.594;10.034;2022-09-09T00:37:14;51.97;;;46.70;;
55037;SDS011;40937;53.594;10.034;2022-09-09T00:39:42;51.33;;;46.10;;
55037;SDS011;40937;53.594;10.034;2022-09-09T00:42:14;52.47;;;46.85;;
55037;SDS011;40937;53.594;10.034;2022-09-09T00:44:53;54.45;;;48.67;;
55037;SDS011;40937;53.594;10.034;2022-09-09T00:47:42;50.65;;;44.05;;
55037;SDS011;40937;53.594;10.034;2022-09-09T00:50:15;49.92;;;44.80;;
55037;SDS011;40937;53.594;10.034;2022-09-09T00:52:55;49.55;;;44.35;;
55037;SDS011;40937;53.594;10.034;2022-09-09T00:55:30;48.65;;;43.47;;
55037;SDS011;40937;53.594;10.034;2022-09-09T00:58:06;48.90;;;43.70;;
55037;SDS011;40937;53.594;10.034;2022-09-09T01:00:38;50.20;;;43.15;;
55037;SDS011;40937;53.594;10.034;2022-09-09T01:03:18;50.17;;;43.80;;
55037;SDS011;40937;53.594;10.034;2022-09-09T01:05:52;44.70;;;40.08;;
55037;SDS011;40937;53.594;10.034;2022-09-09T01:08:33;42.75;;;38.17;;
55037;SDS011;40937;53.594;10.034;2022-09-09T01:11:10;40.63;;;36.40;;
55037;SDS011;40937;53.594;10.034;2022-09-09T01:13:44;44.63;;;36.85;;
55037;SDS011;40937;53.594;10.034;2022-09-09T01:16:17;42.33;;;36.78;;
55037;SDS011;40937;53.594;10.034;2022-09-09T01:18:44;38.83;;;34.72;;
55037;SDS011;40937;53.594;10.034;2022-09-09T01:21:15;37.35;;;33.38;;
55037;SDS011;40937;53.594;10.034;2022-09-09T01:23:56;34.58;;;31.08;;
55037;SDS011;40937;53.594;10.034;2022-09-09T01:26:51;35.58;;;31.98;;
55037;SDS011;40937;53.594;10.034;2022-09-09T01:29:24;36.40;;;32.83;;
55037;SDS011;40937;53.594;10.034;2022-09-09T01:31:53;35.88;;;32.17;;
55037;SDS011;40937;53.594;10.034;2022-09-09T01:34:21;38.03;;;33.92;;
55037;SDS011;40937;53.594;10.034;2022-09-09T01:36:51;35.97;;;32.38;;
55037;SDS011;40937;53.594;10.034;2022-09-09T01:39:23;36.53;;;32.75;;
55037;SDS011;40937;53.594;10.034;2022-09-09T01:42:00;33.55;;;30.27;;
55037;SDS011;40937;53.594;10.034;2022-09-09T01:44:28;35.75;;;32.30;;
55037;SDS011;40937;53.594;10.034;2022-09-09T01:46:56;34.83;;;31.30;;
55037;SDS011;40937;53.594;10.034;2022-09-09T01:49:23;34.42;;;31.00;;
55037;SDS011;40937;53.594;10.034;2022-09-09T01:51:50;33.92;;;30.58;;
55037;SDS011;40937;53.594;10.034;2022-09-09T01:54:27;33.58;;;30.27;;
55037;SDS011;40937;53.594;10.034;2022-09-09T01:57:05;34.00;;;30.67;;
55037;SDS011;40937;53.594;10.034;2022-09-09T01:59:43;35.05;;;31.67;;
55037;SDS011;40937;53.594;10.034;2022-09-09T02:02:16;34.33;;;30.85;;
55037;SDS011;40937;53.594;10.034;2022-09-09T02:05:02;37.00;;;33.50;;
55037;SDS011;40937;53.594;10.034;2022-09-09T02:07:38;34.70;;;31.33;;
55037;SDS011;40937;53.594;10.034;2022-09-09T02:10:20;34.25;;;31.00;;
55037;SDS011;40937;53.594;10.034;2022-09-09T02:13:07;34.38;;;30.77;;
55037;SDS011;40937;53.594;10.034;2022-09-09T02:15:38;38.50;;;34.63;;
55037;SDS011;40937;53.594;10.034;2022-09-09T02:18:11;36.25;;;33.08;;
55037;SDS011;40937;53.594;10.034;2022-09-09T02:20:40;36.80;;;33.13;;
55037;SDS011;40937;53.594;10.034;2022-09-09T02:23:10;33.75;;;30.40;;
55037;SDS011;40937;53.594;10.034;2022-09-09T02:25:38;38.60;;;32.08;;
55037;SDS011;40937;53.594;10.034;2022-09-09T02:28:18;36.80;;;33.00;;
55037;SDS011;40937;53.594;10.034;2022-09-09T02:30:49;34.95;;;31.52;;
55037;SDS011;40937;53.594;10.034;2022-09-09T02:33:22;34.03;;;30.73;;
55037;SDS011;40937;53.594;10.034;2022-09-09T02:35:52;35.33;;;31.95;;
55037;SDS011;40937;53.594;10.034;2022-09-09T02:38:23;34.92;;;31.25;;
55037;SDS011;40937;53.594;10.034;2022-09-09T02:41:03;31.80;;;28.75;;
55037;SDS011;40937;53.594;10.034;2022-09-09T02:43:33;33.17;;;30.15;;
55037;SDS011;40937;53.594;10.034;2022-09-09T02:46:08;33.33;;;30.13;;
55037;SDS011;40937;53.594;10.034;2022-09-09T02:48:51;34.78;;;31.25;;
55037;SDS011;40937;53.594;10.034;2022-09-09T02:51:31;34.92;;;31.05;;
55037;SDS011;40937;53.594;10.034;2022-09-09T02:54:06;34.60;;;30.95;;
55037;SDS011;40937;53.594;10.034;2022-09-09T02:56:39;33.03;;;29.73;;
55037;SDS011;40937;53.594;10.034;2022-09-09T02:59:12;34.38;;;30.65;;
55037;SDS011;40937;53.594;10.034;2022-09-09T03:01:39;32.28;;;28.90;;
55037;SDS011;40937;53.594;10.034;2022-09-09T03:04:08;32.35;;;29.05;;
55037;SDS011;40937;53.594;10.034;2022-09-09T03:06:35;30.70;;;27.58;;
55037;SDS011;40937;53.594;10.034;2022-09-09T03:09:14;31.02;;;27.90;;
55037;SDS011;40937;53.594;10.034;2022-09-09T03:11:41;30.45;;;27.50;;
55037;SDS011;40937;53.594;10.034;2022-09-09T03:14:08;28.10;;;25.63;;
55037;SDS011;40937;53.594;10.034;2022-09-09T03:16:37;29.13;;;26.17;;
55037;SDS011;40937;53.594;10.034;2022-09-09T03:19:04;30.58;;;26.92;;
55037;SDS011;40937;53.594;10.034;2022-09-09T03:21:31;28.92;;;26.05;;
55037;SDS011;40937;53.594;10.034;2022-09-09T03:23:58;28.42;;;25.65;;
55037;SDS011;40937;53.594;10.034;2022-09-09T03:26:28;28.00;;;25.30;;
55037;SDS011;40937;53.594;10.034;2022-09-09T03:28:56;27.67;;;24.80;;
55037;SDS011;40937;53.594;10.034;2022-09-09T03:31:25;26.20;;;23.63;;
55037;SDS011;40937;53.594;10.034;2022-09-09T03:33:57;28.52;;;25.80;;
55037;SDS011;40937;53.594;10.034;2022-09-09T03:36:25;26.80;;;24.30;;
55037;SDS011;40937;53.594;10.034;2022-09-09T03:38:53;27.60;;;24.83;;
55037;SDS011;40937;53.594;10.034;2022-09-09T03:41:22;26.65;;;24.25;;
55037;SDS011;40937;53.594;10.034;2022-09-09T03:43:49;24.60;;;22.40;;
55037;SDS011;40937;53.594;10.034;2022-09-09T03:46:17;25.85;;;23.50;;
55037;SDS011;40937;53.594;10.034;2022-09-09T03:48:44;25.92;;;23.58;;
55037;SDS011;40937;53.594;10.034;2022-09-09T03:51:12;25.65;;;23.35;;
55037;SDS011;40937;53.594;10.034;2022-09-09T03:53:40;24.15;;;21.95;;
55037;SDS011;40937;53.594;10.034;2022-09-09T03:56:06;24.60;;;22.50;;
55037;SDS011;40937;53.594;10.034;2022-09-09T03:58:33;24.05;;;21.77;;
55037;SDS011;40937;53.594;10.034;2022-09-09T04:01:05;24.80;;;22.60;;
55037;SDS011;40937;53.594;10.034;2022-09-09T04:03:34;25.20;;;22.52;;
55037;SDS011;40937;53.594;10.034;2022-09-09T04:06:02;24.42;;;22.02;;
55037;SDS011;40937;53.594;10.034;2022-09-09T04:08:32;23.10;;;21.02;;
55037;SDS011;40937;53.594;10.034;2022-09-09T04:10:59;22.73;;;20.67;;
55037;SDS011;40937;53.594;10.034;2022-09-09T04:13:31;23.90;;;21.58;;
55037;SDS011;40937;53.594;10.034;2022-09-09T04:16:00;23.95;;;21.73;;
55037;SDS011;40937;53.594;10.034;2022-09-09T04:18:29;23.42;;;21.48;;
55037;SDS011;40937;53.594;10.034;2022-09-09T04:20:56;21.45;;;19.75;;
55037;SDS011;40937;53.594;10.034;2022-09-09T04:23:26;23.25;;;21.13;;
55037;SDS011;40937;53.594;10.034;2022-09-09T04:25:57;21.48;;;19.67;;
55037;SDS011;40937;53.594;10.034;2022-09-09T04:28:26;21.92;;;19.92;;
55037;SDS011;40937;53.594;10.034;2022-09-09T04:30:54;20.75;;;18.95;;
55037;SDS011;40937;53.594;10.034;2022-09-09T04:33:23;20.48;;;18.67;;
55037;SDS011;40937;53.594;10.034;2022-09-09T04:35:50;19.52;;;17.83;;
55037;SDS011;40937;53.594;10.034;2022-09-09T04:38:19;19.08;;;17.67;;
55037;SDS011;40937;53.594;10.034;2022-09-09T04:40:48;19.52;;;17.45;;
55037;SDS011;40937;53.594;10.034;2022-09-09T04:43:18;17.35;;;15.88;;
55037;SDS011;40937;53.594;10.034;2022-09-09T04:45:46;17.95;;;16.42;;
55037;SDS011;40937;53.594;10.034;2022-09-09T04:48:14;17.52;;;16.02;;
55037;SDS011;40937;53.594;10.034;2022-09-09T04:50:42;16.90;;;15.10;;
55037;SDS011;40937;53.594;10.034;2022-09-09T04:53:10;16.38;;;15.00;;
55037;SDS011;40937;53.594;10.034;2022-09-09T04:55:38;15.13;;;13.93;;
55037;SDS011;40937;53.594;10.034;2022-09-09T04:58:05;16.20;;;14.90;;
55037;SDS011;40937;53.594;10.034;2022-09-09T05:00:34;15.48;;;14.27;;
55037;SDS011;40937;53.594;10.034;2022-09-09T05:03:04;16.27;;;14.85;;
55037;SDS011;40937;53.594;10.034;2022-09-09T05:05:34;17.13;;;15.60;;
55037;SDS011;40937;53.594;10.034;2022-09-09T05:08:01;15.88;;;14.60;;
55037;SDS011;40937;53.594;10.034;2022-09-09T05:10:29;17.02;;;15.23;;
55037;SDS011;40937;53.594;10.034;2022-09-09T05:12:57;14.95;;;13.65;;
55037;SDS011;40937;53.594;10.034;2022-09-09T05:15:26;14.55;;;13.35;;
55037;SDS011;40937;53.594;10.034;2022-09-09T05:17:57;15.85;;;14.52;;
55037;SDS011;40937;53.594;10.034;2022-09-09T05:20:26;15.63;;;14.32;;
55037;SDS011;40937;53.594;10.034;2022-09-09T05:22:54;15.40;;;14.20;;
55037;SDS011;40937;53.594;10.034;2022-09-09T05:25:22;14.80;;;13.65;;
55037;SDS011;40937;53.594;10.034;2022-09-09T05:27:52;15.25;;;14.00;;
55037;SDS011;40937;53.594;10.034;2022-09-09T05:30:19;15.43;;;14.10;;
55037;SDS011;40937;53.594;10.034;2022-09-09T05:32:47;14.00;;;12.90;;
55037;SDS011;40937;53.594;10.034;2022-09-09T05:35:16;14.35;;;12.95;;
55037;SDS011;40937;53.594;10.034;2022-09-09T05:37:44;13.82;;;12.75;;
55037;SDS011;40937;53.594;10.034;2022-09-09T05:40:11;14.82;;;13.50;;
55037;SDS011;40937;53.594;10.034;2022-09-09T05:42:39;14.73;;;13.52;;
55037;SDS011;40937;53.594;10.034;2022-09-09T05:45:06;14.07;;;12.98;;
55037;SDS011;40937;53.594;10.034;2022-09-09T05:47:34;13.63;;;12.63;;
55037;SDS011;40937;53.594;10.034;2022-09-09T05:50:05;14.80;;;13.75;;
55037;SDS011;40937;53.594;10.034;2022-09-09T05:52:33;15.60;;;13.73;;
55037;SDS011;40937;53.594;10.034;2022-09-09T05:55:00;15.65;;;14.35;;
55037;SDS011;40937;53.594;10.034;2022-09-09T05:57:27;14.15;;;13.07;;
55037;SDS011;40937;53.594;10.034;2022-09-09T05:59:54;14.63;;;13.32;;
55037;SDS011;40937;53.594;10.034;2022-09-09T06:02:21;13.98;;;12.98;;
55037;SDS011;40937;53.594;10.034;2022-09-09T06:04:48;13.63;;;12.48;;
55037;SDS011;40937;53.594;10.034;2022-09-09T06:07:15;12.32;;;11.13;;
55037;SDS011;40937;53.594;10.034;2022-09-09T06:09:44;12.18;;;10.98;;
55037;SDS011;40937;53.594;10.034;2022-09-09T06:12:10;11.75;;;10.38;;
55037;SDS011;40937;53.594;10.034;2022-09-09T06:14:38;12.02;;;10.95;;
55037;SDS011;40937;53.594;10.034;2022-09-09T06:17:05;12.35;;;11.25;;
55037;SDS011;40937;53.594;10.034;2022-09-09T06:19:31;14.93;;;11.27;;
55037;SDS011;40937;53.594;10.034;2022-09-09T06:21:59;11.50;;;10.43;;
55037;SDS011;40937;53.594;10.034;2022-09-09T06:24:27;10.90;;;9.82;;
55037;SDS011;40937;53.594;10.034;2022-09-09T06:26:57;12.95;;;10.25;;
55037;SDS011;40937;53.594;10.034;2022-09-09T06:29:27;10.90;;;9.88;;
55037;SDS011;40937;53.594;10.034;2022-09-09T06:31:54;10.75;;;8.90;;
55037;SDS011;40937;53.594;10.034;2022-09-09T06:34:24;12.38;;;8.70;;
55037;SDS011;40937;53.594;10.034;2022-09-09T06:36:56;9.52;;;8.63;;
55037;SDS011;40937;53.594;10.034;2022-09-09T06:39:24;9.90;;;9.02;;
55037;SDS011;40937;53.594;10.034;2022-09-09T06:41:51;9.73;;;8.10;;
55037;SDS011;40937;53.594;10.034;2022-09-09T06:44:46;10.00;;;7.53;;
55037;SDS011;40937;53.594;10.034;2022-09-09T06:47:22;11.10;;;8.45;;
55037;SDS011;40937;53.594;10.034;2022-09-09T06:49:50;8.73;;;7.90;;
55037;SDS011;40937;53.594;10.034;2022-09-09T06:52:17;8.73;;;7.60;;
55037;SDS011;40937;53.594;10.034;2022-09-09T06:54:45;9.93;;;7.30;;
55037;SDS011;40937;53.594;10.034;2022-09-09T06:57:13;8.90;;;6.93;;
55037;SDS011;40937;53.594;10.034;2022-09-09T06:59:40;10.45;;;7.53;;
55037;SDS011;40937;53.594;10.034;2022-09-09T07:02:09;7.95;;;7.28;;
55037;SDS011;40937;53.594;10.034;2022-09-09T07:04:35;8.35;;;7.72;;
55037;SDS011;40937;53.594;10.034;2022-09-09T07:07:03;9.50;;;7.57;;
55037;SDS011;40937;53.594;10.034;2022-09-09T07:09:30;10.07;;;7.20;;
55037;SDS011;40937;53.594;10.034;2022-09-09T07:11:57;8.13;;;7.32;;
55037;SDS011;40937;53.594;10.034;2022-09-09T07:14:25;13.52;;;7.15;;
55037;SDS011;40937;53.594;10.034;2022-09-09T07:16:56;13.23;;;6.85;;
55037;SDS011;40937;53.594;10.034;2022-09-09T07:19:24;9.57;;;7.18;;
55037;SDS011;40937;53.594;10.034;2022-09-09T07:21:52;8.63;;;6.80;;
55037;SDS011;40937;53.594;10.034;2022-09-09T07:24:21;12.90;;;7.13;;
55037;SDS011;40937;53.594;10.034;2022-09-09T07:26:48;8.82;;;6.00;;
55037;SDS011;40937;53.594;10.034;2022-09-09T07:29:17;7.93;;;6.90;;
55037;SDS011;40937;53.594;10.034;2022-09-09T07:31:44;6.47;;;5.55;;
55037;SDS011;40937;53.594;10.034;2022-09-09T07:34:15;9.68;;;6.00;;
55037;SDS011;40937;53.594;10.034;2022-09-09T07:36:43;8.70;;;6.25;;
55037;SDS011;40937;53.594;10.034;2022-09-09T07:39:12;5.85;;;5.35;;
55037;SDS011;40937;53.594;10.034;2022-09-09T07:44:14;6.55;;;5.13;;
55037;SDS011;40937;53.594;10.034;2022-09-09T07:46:44;7.50;;;5.20;;
55037;SDS011;40937;53.594;10.034;2022-09-09T07:49:16;11.63;;;5.68;;
55037;SDS011;40937;53.594;10.034;2022-09-09T07:51:46;6.05;;;5.43;;
55037;SDS011;40937;53.594;10.034;2022-09-09T07:54:16;6.18;;;4.75;;
55037;SDS011;40937;53.594;10.034;2022-09-09T07:56:46;7.70;;;5.10;;
55037;SDS011;40937;53.594;10.034;2022-09-09T07:59:14;6.60;;;4.60;;
55037;SDS011;40937;53.594;10.034;2022-09-09T08:01:45;8.73;;;5.45;;
55037;SDS011;40937;53.594;10.034;2022-09-09T08:04:17;5.35;;;4.78;;
55037;SDS011;40937;53.594;10.034;2022-09-09T08:06:48;7.00;;;5.03;;
55037;SDS011;40937;53.594;10.034;2022-09-09T08:09:17;8.05;;;4.88;;
55037;SDS011;40937;53.594;10.034;2022-09-09T08:11:46;7.50;;;4.72;;
55037;SDS011;40937;53.594;10.034;2022-09-09T08:14:13;6.88;;;4.32;;
55037;SDS011;40937;53.594;10.034;2022-09-09T08:16:42;6.25;;;4.28;;
55037;SDS011;40937;53.594;10.034;2022-09-09T08:19:12;7.25;;;5.43;;
55037;SDS011;40937;53.594;10.034;2022-09-09T08:21:40;7.47;;;5.07;;
55037;SDS011;40937;53.594;10.034;2022-09-09T08:24:11;7.45;;;4.90;;
55037;SDS011;40937;53.594;10.034;2022-09-09T08:26:41;6.00;;;5.25;;
55037;SDS011;40937;53.594;10.034;2022-09-09T08:29:22;7.00;;;4.38;;
55037;SDS011;40937;53.594;10.034;2022-09-09T08:31:51;6.65;;;4.63;;
55037;SDS011;40937;53.594;10.034;2022-09-09T08:34:20;6.13;;;4.70;;
55037;SDS011;40937;53.594;10.034;2022-09-09T08:36:49;5.40;;;4.90;;
55037;SDS011;40937;53.594;10.034;2022-09-09T08:39:21;5.75;;;4.25;;
55037;SDS011;40937;53.594;10.034;2022-09-09T08:41:56;8.70;;;4.88;;
55037;SDS011;40937;53.594;10.034;2022-09-09T08:44:41;5.38;;;3.80;;
55037;SDS011;40937;53.594;10.034;2022-09-09T08:47:24;5.68;;;4.95;;
55037;SDS011;40937;53.594;10.034;2022-09-09T08:50:12;8.32;;;4.43;;
55037;SDS011;40937;53.594;10.034;2022-09-09T08:52:49;5.38;;;4.88;;
55037;SDS011;40937;53.594;10.034;2022-09-09T08:55:24;8.10;;;4.35;;
55037;SDS011;40937;53.594;10.034;2022-09-09T08:57:57;7.95;;;4.32;;
55037;SDS011;40937;53.594;10.034;2022-09-09T09:00:31;5.45;;;4.40;;
55037;SDS011;40937;53.594;10.034;2022-09-09T09:03:10;6.70;;;4.45;;
55037;SDS011;40937;53.594;10.034;2022-09-09T09:05:46;4.85;;;3.95;;
55037;SDS011;40937;53.594;10.034;2022-09-09T09:08:20;10.38;;;4.72;;
55037;SDS011;40937;53.594;10.034;2022-09-09T09:10:53;9.50;;;4.18;;
55037;SDS011;40937;53.594;10.034;2022-09-09T09:13:26;5.85;;;4.03;;
55037;SDS011;40937;53.594;10.034;2022-09-09T09:16:02;5.97;;;4.10;;
55037;SDS011;40937;53.594;10.034;2022-09-09T09:18:39;6.03;;;3.75;;
55037;SDS011;40937;53.594;10.034;2022-09-09T09:21:10;5.35;;;4.35;;
55037;SDS011;40937;53.594;10.034;2022-09-09T09:23:45;7.68;;;3.78;;
55037;SDS011;40937;53.594;10.034;2022-09-09T09:26:21;4.68;;;3.72;;
55037;SDS011;40937;53.594;10.034;2022-09-09T09:28:52;6.03;;;4.32;;
55037;SDS011;40937;53.594;10.034;2022-09-09T09:31:21;5.63;;;3.97;;
55037;SDS011;40937;53.594;10.034;2022-09-09T09:33:52;9.95;;;3.63;;
55037;SDS011;40937;53.594;10.034;2022-09-09T09:36:24;7.28;;;3.72;;
55037;SDS011;40937;53.594;10.034;2022-09-09T09:39:02;4.00;;;2.97;;
55037;SDS011;40937;53.594;10.034;2022-09-09T09:41:34;3.58;;;3.28;;
55037;SDS011;40937;53.594;10.034;2022-09-09T09:44:04;5.78;;;3.28;;
55037;SDS011;40937;53.594;10.034;2022-09-09T09:46:32;5.80;;;4.10;;
55037;SDS011;40937;53.594;10.034;2022-09-09T09:49:08;5.47;;;2.80;;
55037;SDS011;40937;53.594;10.034;2022-09-09T09:51:37;3.85;;;2.53;;
55037;SDS011;40937;53.594;10.034;2022-09-09T09:54:06;3.65;;;2.38;;
55037;SDS011;40937;53.594;10.034;2022-09-09T09:56:45;6.00;;;2.30;;
55037;SDS011;40937;53.594;10.034;2022-09-09T09:59:19;5.53;;;2.45;;
55037;SDS011;40937;53.594;10.034;2022-09-09T10:01:47;3.35;;;2.20;;
55037;SDS011;40937;53.594;10.034;2022-09-09T10:04:15;4.20;;;2.35;;
55037;SDS011;40937;53.594;10.034;2022-09-09T10:06:45;6.85;;;2.88;;
55037;SDS011;40937;53.594;10.034;2022-09-09T10:09:20;4.72;;;2.22;;
55037;SDS011;40937;53.594;10.034;2022-09-09T10:11:52;2.83;;;2.13;;
55037;SDS011;40937;53.594;10.034;2022-09-09T10:14:26;3.72;;;2.10;;
55037;SDS011;40937;53.594;10.034;2022-09-09T10:17:06;5.78;;;2.25;;
55037;SDS011;40937;53.594;10.034;2022-09-09T10:19:41;3.78;;;1.95;;
55037;SDS011;40937;53.594;10.034;2022-09-09T10:22:19;2.97;;;2.50;;
55037;SDS011;40937;53.594;10.034;2022-09-09T10:24:59;3.58;;;1.98;;
55037;SDS011;40937;53.594;10.034;2022-09-09T10:27:44;4.05;;;2.38;;
55037;SDS011;40937;53.594;10.034;2022-09-09T10:30:22;3.15;;;2.15;;
55037;SDS011;40937;53.594;10.034;2022-09-09T10:32:54;3.25;;;2.03;;
55037;SDS011;40937;53.594;10.034;2022-09-09T10:35:30;2.35;;;1.80;;
55037;SDS011;40937;53.594;10.034;2022-09-09T10:38:05;2.85;;;1.75;;
55037;SDS011;40937;53.594;10.034;2022-09-09T10:40:41;4.75;;;1.90;;
55037;SDS011;40937;53.594;10.034;2022-09-09T10:43:19;2.22;;;1.95;;
55037;SDS011;40937;53.594;10.034;2022-09-09T10:45:55;4.97;;;2.53;;
55037;SDS011;40937;53.594;10.034;2022-09-09T10:48:39;3.75;;;2.17;;
55037;SDS011;40937;53.594;10.034;2022-09-09T10:51:20;2.95;;;1.80;;
55037;SDS011;40937;53.594;10.034;2022-09-09T10:53:53;6.30;;;2.35;;
55037;SDS011;40937;53.594;10.034;2022-09-09T10:56:31;3.70;;;2.10;;
55037;SDS011;40937;53.594;10.034;2022-09-09T10:59:02;4.47;;;1.65;;
55037;SDS011;40937;53.594;10.034;2022-09-09T11:01:34;3.80;;;1.60;;
55037;SDS011;40937;53.594;10.034;2022-09-09T11:04:08;4.05;;;1.55;;
55037;SDS011;40937;53.594;10.034;2022-09-09T11:06:42;3.55;;;1.58;;
55037;SDS011;40937;53.594;10.034;2022-09-09T11:09:15;6.00;;;1.33;;
55037;SDS011;40937;53.594;10.034;2022-09-09T11:11:46;6.80;;;1.55;;
55037;SDS011;40937;53.594;10.034;2022-09-09T11:14:21;4.20;;;1.65;;
55037;SDS011;40937;53.594;10.034;2022-09-09T11:16:56;4.32;;;1.30;;
55037;SDS011;40937;53.594;10.034;2022-09-09T11:19:27;2.72;;;1.33;;
55037;SDS011;40937;53.594;10.034;2022-09-09T11:21:59;2.90;;;1.33;;
55037;SDS011;40937;53.594;10.034;2022-09-09T11:24:29;2.92;;;1.58;;
55037;SDS011;40937;53.594;10.034;2022-09-09T11:27:03;2.42;;;1.67;;
55037;SDS011;40937;53.594;10.034;2022-09-09T11:29:42;3.63;;;1.80;;
55037;SDS011;40937;53.594;10.034;2022-09-09T11:32:24;5.80;;;1.77;;
55037;SDS011;40937;53.594;10.034;2022-09-09T11:35:09;2.13;;;1.40;;
55037;SDS011;40937;53.594;10.034;2022-09-09T11:37:58;4.10;;;1.58;;
55037;SDS011;40937;53.594;10.034;2022-09-09T11:40:38;3.35;;;1.10;;
55037;SDS011;40937;53.594;10.034;2022-09-09T11:43:08;5.22;;;1.42;;
55037;SDS011;40937;53.594;10.034;2022-09-09T11:45:39;3.20;;;1.77;;
55037;SDS011;40937;53.594;10.034;2022-09-09T11:48:21;4.68;;;1.48;;
55037;SDS011;40937;53.594;10.034;2022-09-09T11:50:57;7.43;;;1.80;;
55037;SDS011;40937;53.594;10.034;2022-09-09T11:53:25;3.03;;;1.67;;
55037;SDS011;40937;53.594;10.034;2022-09-09T11:59:21;1.98;;;1.55;;
55037;SDS011;40937;53.594;10.034;2022-09-09T12:05:09;5.75;;;1.70;;
55037;SDS011;40937;53.594;10.034;2022-09-09T12:07:49;3.08;;;1.40;;
55037;SDS011;40937;53.594;10.034;2022-09-09T12:10:52;4.75;;;1.60;;
55037;SDS011;40937;53.594;10.034;2022-09-09T12:14:01;6.72;;;1.50;;
55037;SDS011;40937;53.594;10.034;2022-09-09T12:16:33;3.95;;;1.70;;
55037;SDS011;40937;53.594;10.034;2022-09-09T12:19:13;2.20;;;1.42;;
55037;SDS011;40937;53.594;10.034;2022-09-09T12:21:58;6.47;;;1.60;;
55037;SDS011;40937;53.594;10.034;2022-09-09T12:24:46;3.22;;;2.00;;
55037;SDS011;40937;53.594;10.034;2022-09-09T12:27:45;2.95;;;1.85;;
55037;SDS011;40937;53.594;10.034;2022-09-09T12:30:41;3.08;;;1.80;;
55037;SDS011;40937;53.594;10.034;2022-09-09T12:33:44;5.35;;;2.15;;
55037;SDS011;40937;53.594;10.034;2022-09-09T12:36:59;3.97;;;2.13;;
55037;SDS011;40937;53.594;10.034;2022-09-09T12:39:42;2.67;;;2.05;;
55037;SDS011;40937;53.594;10.034;2022-09-09T13:14:00;5.30;;;2.17;;
55037;SDS011;40937;53.594;10.034;2022-09-09T13:16:31;7.65;;;2.13;;
55037;SDS011;40937;53.594;10.034;2022-09-09T14:11:05;6.00;;;3.50;;
55037;SDS011;40937;53.594;10.034;2022-09-09T14:43:20;5.88;;;2.67;;
55037;SDS011;40937;53.594;10.034;2022-09-09T15:06:57;6.43;;;3.20;;
55037;SDS011;40937;53.594;10.034;2022-09-09T15:09:24;4.22;;;3.15;;
55037;SDS011;40937;53.594;10.034;2022-09-09T15:11:51;10.40;;;3.70;;
55037;SDS011;40937;53.594;10.034;2022-09-09T15:14:22;7.18;;;4.47;;
55037;SDS011;40937;53.594;10.034;2022-09-09T15:17:03;6.63;;;4.10;;
55037;SDS011;40937;53.594;10.034;2022-09-09T15:19:29;3.72;;;3.40;;
55037;SDS011;40937;53.594;10.034;2022-09-09T15:21:58;6.82;;;3.90;;
55037;SDS011;40937;53.594;10.034;2022-09-09T15:24:25;4.82;;;3.53;;
55037;SDS011;40937;53.594;10.034;2022-09-09T15:26:52;4.90;;;3.63;;
55037;SDS011;40937;53.594;10.034;2022-09-09T15:29:18;4.88;;;3.25;;
55037;SDS011;40937;53.594;10.034;2022-09-09T15:31:45;5.05;;;3.22;;
55037;SDS011;40937;53.594;10.034;2022-09-09T15:34:12;5.13;;;3.40;;
55037;SDS011;40937;53.594;10.034;2022-09-09T15:36:39;4.95;;;2.97;;
55037;SDS011;40937;53.594;10.034;2022-09-09T15:39:09;6.95;;;2.42;;
55037;SDS011;40937;53.594;10.034;2022-09-09T15:41:38;3.58;;;2.72;;
55037;SDS011;40937;53.594;10.034;2022-09-09T15:44:05;4.38;;;3.33;;
55037;SDS011;40937;53.594;10.034;2022-09-09T15:46:33;3.53;;;2.80;;
55037;SDS011;40937;53.594;10.034;2022-09-09T15:49:03;3.40;;;2.80;;
55037;SDS011;40937;53.594;10.034;2022-09-09T15:51:32;5.15;;;2.90;;
55037;SDS011;40937;53.594;10.034;2022-09-09T15:53:59;5.85;;;3.03;;
55037;SDS011;40937;53.594;10.034;2022-09-09T16:25:31;2.97;;;1.98;;
55037;SDS011;40937;53.594;10.034;2022-09-09T16:27:58;3.47;;;2.17;;
55037;SDS011;40937;53.594;10.034;2022-09-09T16:30:24;2.25;;;1.92;;
55037;SDS011;40937;53.594;10.034;2022-09-09T16:32:51;3.22;;;2.30;;
55037;SDS011;40937;53.594;10.034;2022-09-09T16:35:18;5.18;;;2.80;;
55037;SDS011;40937;53.594;10.034;2022-09-09T16:37:46;4.22;;;2.70;;
55037;SDS011;40937;53.594;10.034;2022-09-09T16:40:12;4.90;;;2.70;;
55037;SDS011;40937;53.594;10.034;2022-09-09T16:42:41;6.00;;;3.30;;
55037;SDS011;40937;53.594;10.034;2022-09-09T16:45:08;9.23;;;3.85;;
55037;SDS011;40937;53.594;10.034;2022-09-09T16:47:35;3.10;;;2.70;;
55037;SDS011;40937;53.594;10.034;2022-09-09T16:50:02;5.45;;;2.95;;
55037;SDS011;40937;53.594;10.034;2022-09-09T16:52:29;6.25;;;4.30;;
55037;SDS011;40937;53.594;10.034;2022-09-09T16:54:55;4.63;;;3.03;;
55037;SDS011;40937;53.594;10.034;2022-09-09T16:57:22;2.78;;;2.55;;
55037;SDS011;40937;53.594;10.034;2022-09-09T16:59:50;4.75;;;1.98;;
55037;SDS011;40937;53.594;10.034;2022-09-09T17:02:19;4.00;;;2.35;;
55037;SDS011;40937;53.594;10.034;2022-09-09T17:04:45;5.40;;;2.40;;
55037;SDS011;40937;53.594;10.034;2022-09-09T17:07:12;7.80;;;3.22;;
55037;SDS011;40937;53.594;10.034;2022-09-09T17:09:39;3.60;;;2.53;;
55037;SDS011;40937;53.594;10.034;2022-09-09T17:12:05;3.35;;;2.47;;
55037;SDS011;40937;53.594;10.034;2022-09-09T17:14:33;3.05;;;2.47;;
55037;SDS011;40937;53.594;10.034;2022-09-09T17:17:01;3.08;;;2.75;;
55037;SDS011;40937;53.594;10.034;2022-09-09T17:19:29;5.05;;;2.67;;
55037;SDS011;40937;53.594;10.034;2022-09-09T17:21:56;2.70;;;2.50;;
55037;SDS011;40937;53.594;10.034;2022-09-09T17:24:24;6.78;;;3.05;;
55037;SDS011;40937;53.594;10.034;2022-09-09T17:26:51;2.80;;;2.42;;
55037;SDS011;40937;53.594;10.034;2022-09-09T17:29:18;5.57;;;2.80;;
55037;SDS011;40937;53.594;10.034;2022-09-09T17:31:44;3.83;;;3.42;;
55037;SDS011;40937;53.594;10.034;2022-09-09T17:34:12;6.13;;;4.15;;
55037;SDS011;40937;53.594;10.034;2022-09-09T17:36:39;4.75;;;2.97;;
55037;SDS011;40937;53.594;10.034;2022-09-09T17:39:06;8.20;;;3.72;;
55037;SDS011;40937;53.594;10.034;2022-09-09T17:41:33;4.88;;;2.80;;
55037;SDS011;40937;53.594;10.034;2022-09-09T17:44:02;3.67;;;3.15;;